Time;durP1;ratioP1;P1;durP2;ratioP2;P2;SDS_P1;SDS_P2;PMS_P1;PMS_P2;Temp;Humidity;BMP_temperature;BMP_pressure;BME280_temperature;BME280_humidity;BME280_pressure;Samples;Min_cycle;Max_cycle;Signal;HPM_P1;HPM_P2
2021/11/07 00:06:37;;;;;;;20.25;17.42;;;;;;;30.73;21.26;95298.91;5014455;28;20388;-49
2021/11/07 00:09:43;;;;;;;19.00;16.45;;;;;;;30.75;21.30;95302.00;5013777;28;20052;-49
2021/11/07 00:12:01;;;;;;;23.10;16.52;;;;;;;30.95;21.11;95311.13;5010706;28;20064;-49
2021/11/07 00:14:28;;;;;;;23.10;17.42;;;;;;;31.19;20.92;95323.72;5014244;28;20045;-48
2021/11/07 00:16:56;;;;;;;18.88;15.95;;;;;;;30.73;20.99;95320.50;5016941;28;20062;-48
2021/11/07 00:22:06;;;;;;;21.50;18.05;;;;;;;30.71;21.14;95317.41;5014479;28;20046;-47
2021/11/07 00:27:19;;;;;;;19.98;16.85;;;;;;;30.54;21.45;95311.69;5012883;28;20057;-49
2021/11/07 00:37:42;;;;;;;27.80;24.83;;;;;;;30.60;21.83;95323.63;5013934;28;20053;-48
2021/11/07 00:40:22;;;;;;;23.80;21.08;;;;;;;30.75;21.32;95323.56;5013851;28;20049;-57
2021/11/07 00:45:37;;;;;;;21.48;18.70;;;;;;;30.50;21.79;95304.75;5014033;28;20050;-49
2021/11/07 01:01:35;;;;;;;18.45;16.38;;;;;;;30.61;21.62;95282.00;5010842;28;20053;-49
2021/11/07 01:04:05;;;;;;;17.55;15.55;;;;;;;30.41;21.66;95288.97;5013693;28;20364;-49
2021/11/07 01:06:33;;;;;;;17.63;15.80;;;;;;;30.52;21.62;95288.97;5013682;28;20054;-50
2021/11/07 01:09:00;;;;;;;17.67;15.60;;;;;;;29.96;22.33;95283.31;4996622;28;20053;-49
2021/11/07 01:11:27;;;;;;;17.10;15.30;;;;;;;30.57;21.49;95275.81;5013621;28;20487;-50
2021/11/07 01:13:55;;;;;;;17.95;15.30;;;;;;;30.57;21.53;95265.03;5013175;28;20361;-51
2021/11/07 01:16:22;;;;;;;17.33;15.25;;;;;;;30.40;21.76;95265.88;5013378;28;20045;-49
2021/11/07 01:18:50;;;;;;;17.40;14.73;;;;;;;30.21;22.12;95269.03;5032057;28;20049;-49
2021/11/07 01:21:18;;;;;;;18.15;16.05;;;;;;;30.30;21.93;95267.47;5033275;28;20443;-50
2021/11/07 01:23:55;;;;;;;17.00;15.30;;;;;;;30.34;21.95;95264.75;5030447;28;20468;-55
2021/11/07 01:29:10;;;;;;;18.40;16.45;;;;;;;30.71;21.76;95269.63;5012630;28;20349;-50
2021/11/07 01:31:38;;;;;;;18.65;15.57;;;;;;;30.42;22.07;95258.16;5013366;28;20060;-49
2021/11/07 01:34:07;;;;;;;17.23;14.85;;;;;;;30.44;22.25;95261.22;5013468;28;20041;-48
2021/11/07 01:44:21;;;;;;;17.25;15.32;;;;;;;30.43;21.93;95259.69;4969922;28;20054;-48
2021/11/07 01:46:52;;;;;;;18.25;15.25;;;;;;;30.36;21.95;95257.03;5015674;28;20503;-49
2021/11/07 01:49:22;;;;;;;21.52;15.07;;;;;;;30.95;21.22;95251.72;5017440;28;20054;-48
2021/11/07 01:51:53;;;;;;;16.60;14.13;;;;;;;30.45;21.73;95262.78;5013632;28;20053;-50
2021/11/07 01:56:48;;;;;;;18.73;14.68;;;;;;;29.72;22.78;95259.88;5013278;28;20048;-51
2021/11/07 01:59:16;;;;;;;16.70;14.55;;;;;;;29.61;22.95;95257.19;5013034;28;20068;-49
2021/11/07 02:01:45;;;;;;;16.83;14.05;;;;;;;30.07;22.45;95259.81;5016792;28;20049;-50
2021/11/07 02:04:12;;;;;;;19.40;14.50;;;;;;;30.35;21.99;95258.19;5029351;28;20041;-49
2021/11/07 02:06:39;;;;;;;17.02;14.15;;;;;;;30.36;22.09;95248.94;5025108;28;20411;-50
2021/11/07 02:09:06;;;;;;;18.00;13.02;;;;;;;30.12;22.21;95255.19;5016807;28;20045;-50
2021/11/07 02:11:33;;;;;;;16.55;13.82;;;;;;;30.47;22.12;95255.06;5017000;28;20045;-49
2021/11/07 02:14:01;;;;;;;16.02;13.80;;;;;;;30.29;22.23;95254.38;5016841;28;20041;-48
2021/11/07 02:16:28;;;;;;;17.45;13.32;;;;;;;30.27;22.13;95246.66;5016287;28;20057;-50
2021/11/07 02:18:56;;;;;;;17.05;12.93;;;;;;;30.67;21.72;95253.44;5035488;28;20045;-49
2021/11/07 02:21:23;;;;;;;16.05;13.15;;;;;;;30.36;22.02;95246.25;5016805;28;20045;-49
2021/11/07 02:23:50;;;;;;;15.43;13.32;;;;;;;30.29;22.29;95248.97;5016412;28;20368;-48
2021/11/07 02:26:19;;;;;;;17.05;14.07;;;;;;;30.46;21.83;95248.13;5016296;28;20049;-49
2021/11/07 02:28:48;;;;;;;16.75;13.63;;;;;;;30.42;22.05;95241.97;5015923;28;20041;-50
2021/11/07 02:31:18;;;;;;;15.35;13.27;;;;;;;30.32;22.09;95237.41;5016049;28;20042;-52
2021/11/07 02:33:46;;;;;;;16.93;13.50;;;;;;;30.61;21.79;95241.53;5016368;28;20053;-51
2021/11/07 02:36:18;;;;;;;17.58;14.80;;;;;;;30.42;21.97;95235.81;5016205;28;20050;-50
2021/11/07 02:38:46;;;;;;;17.58;14.30;;;;;;;29.65;23.17;95241.00;5015858;28;20053;-49
2021/11/07 02:41:14;;;;;;;18.02;13.93;;;;;;;30.27;22.43;95240.50;5014673;28;20042;-50
2021/11/07 02:43:52;;;;;;;17.73;13.77;;;;;;;29.95;22.79;95240.59;5015900;28;20740;-50
2021/11/07 02:46:20;;;;;;;17.35;14.82;;;;;;;30.18;22.66;95237.44;5015201;28;20440;-52
2021/11/07 02:48:53;;;;;;;15.35;13.63;;;;;;;29.88;22.84;95230.56;5017608;28;20054;-49
2021/11/07 02:51:29;;;;;;;16.17;14.15;;;;;;;29.68;22.98;95237.56;5016034;28;20054;-49
2021/11/07 02:53:56;;;;;;;15.52;13.48;;;;;;;29.51;23.19;95238.34;5016299;28;20050;-49
2021/11/07 02:56:23;;;;;;;16.42;14.70;;;;;;;29.70;22.98;95246.03;5015841;28;20045;-48
2021/11/07 02:58:51;;;;;;;18.88;15.27;;;;;;;29.55;23.08;95247.19;5015273;28;20060;-49
2021/11/07 03:01:21;;;;;;;16.88;13.43;;;;;;;30.17;21.93;95246.69;5015921;28;20121;-49
2021/11/07 03:03:50;;;;;;;20.20;15.15;;;;;;;29.81;22.69;95241.38;5015701;28;20476;-50
2021/11/07 03:06:17;;;;;;;15.95;14.00;;;;;;;29.58;22.88;95243.72;5015786;28;20050;-48
2021/11/07 03:08:49;;;;;;;16.27;14.18;;;;;;;29.86;22.66;95242.91;5015117;28;20046;-52
2021/11/07 03:11:18;;;;;;;15.65;13.95;;;;;;;30.46;21.69;95237.34;5014476;28;20064;-51
2021/11/07 03:13:48;;;;;;;15.52;13.93;;;;;;;29.79;22.87;95249.09;5015569;28;20042;-49
2021/11/07 03:16:15;;;;;;;17.35;14.77;;;;;;;29.79;23.01;95249.09;5015312;28;20061;-49
2021/11/07 03:18:42;;;;;;;15.38;13.77;;;;;;;29.72;22.99;95244.50;5017663;28;20058;-49
2021/11/07 03:21:11;;;;;;;16.15;14.27;;;;;;;29.80;22.67;95249.84;5015544;28;20060;-49
2021/11/07 03:23:40;;;;;;;16.85;13.73;;;;;;;29.68;22.93;95245.66;5014877;28;20042;-48
2021/11/07 03:26:10;;;;;;;14.90;13.18;;;;;;;29.84;23.01;95235.22;5015250;28;20054;-49
2021/11/07 03:28:38;;;;;;;16.23;13.27;;;;;;;30.47;21.70;95244.28;5014617;28;20080;-49
2021/11/07 03:36:07;;;;;;;15.73;13.68;;;;;;;29.84;22.38;95246.00;5012937;28;20052;-49
2021/11/07 03:38:35;;;;;;;17.48;13.85;;;;;;;29.42;22.80;95242.19;5014456;28;20052;-50
2021/11/07 03:41:03;;;;;;;19.30;15.13;;;;;;;29.21;23.16;95239.50;5014134;28;20507;-49
2021/11/07 03:43:30;;;;;;;21.75;15.57;;;;;;;29.05;23.35;95241.78;5015106;28;20050;-48
2021/11/07 03:45:58;;;;;;;19.52;16.25;;;;;;;28.64;23.77;95236.72;5014415;28;20065;-52
2021/11/07 03:48:25;;;;;;;20.35;15.40;;;;;;;28.90;23.79;95238.31;5018535;28;20348;-53
2021/11/07 03:50:53;;;;;;;19.67;15.23;;;;;;;28.84;23.54;95242.50;5013670;28;20054;-50
2021/11/07 03:53:20;;;;;;;18.92;14.65;;;;;;;28.76;23.56;95239.03;5014922;28;20168;-50
2021/11/07 03:55:47;;;;;;;19.63;15.43;;;;;;;28.85;23.95;95241.38;5014656;28;20049;-48
2021/11/07 03:58:14;;;;;;;19.90;15.13;;;;;;;29.18;23.48;95242.97;5014254;28;20045;-49
2021/11/07 04:00:42;;;;;;;19.90;15.18;;;;;;;28.95;23.65;95243.31;5014526;28;20046;-51
2021/11/07 04:03:09;;;;;;;20.90;16.33;;;;;;;28.81;23.62;95249.41;5014721;28;20432;-49
2021/11/07 04:05:37;;;;;;;17.83;15.93;;;;;;;28.92;23.67;95251.41;5013995;28;20449;-48
2021/11/07 04:08:04;;;;;;;19.63;15.65;;;;;;;28.76;24.16;95265.16;5013989;28;20053;-49
2021/11/07 04:10:32;;;;;;;17.15;15.07;;;;;;;28.80;23.97;95247.88;5014627;28;20042;-54
2021/11/07 04:13:00;;;;;;;17.15;15.27;;;;;;;28.25;24.90;95247.31;5014616;28;20053;-50
2021/11/07 04:15:27;;;;;;;19.17;15.18;;;;;;;28.78;24.02;95258.25;5014438;28;20041;-49
2021/11/07 04:17:55;;;;;;;17.67;14.35;;;;;;;28.83;23.89;95260.56;5018148;28;20535;-49
2021/11/07 04:20:22;;;;;;;17.95;14.70;;;;;;;28.49;24.02;95240.50;5014599;28;20045;-52
2021/11/07 04:22:49;;;;;;;21.13;17.23;;;;;;;28.30;24.80;95238.13;5013852;28;20038;-51
2021/11/07 04:25:16;;;;;;;26.45;21.85;;;;;;;28.03;25.16;95240.28;5014316;28;20049;-54
2021/11/07 04:27:44;;;;;;;26.92;22.42;;;;;;;28.39;24.59;95228.56;5013831;28;20057;-54
2021/11/07 04:30:11;;;;;;;25.75;20.48;;;;;;;28.11;25.22;95226.50;5014281;28;20045;-51
2021/11/07 04:32:38;;;;;;;23.58;20.05;;;;;;;28.20;24.81;95226.16;5013512;28;20076;-49
2021/11/07 04:35:07;;;;;;;22.23;19.30;;;;;;;28.40;24.54;95232.03;5014389;28;20433;-49
2021/11/07 04:37:38;;;;;;;23.02;20.55;;;;;;;28.14;24.85;95220.38;5013606;28;20054;-50
2021/11/07 04:40:10;;;;;;;22.08;19.75;;;;;;;28.33;24.44;95223.91;5014221;28;20045;-47
2021/11/07 04:42:40;;;;;;;24.23;19.65;;;;;;;28.60;24.09;95221.69;5014093;28;20054;-51
2021/11/07 04:45:08;;;;;;;22.10;18.45;;;;;;;28.01;25.25;95221.84;5014032;28;20046;-54
2021/11/07 04:47:36;;;;;;;20.30;17.98;;;;;;;28.19;24.54;95228.06;5016758;28;20138;-49
2021/11/07 04:50:04;;;;;;;20.30;18.15;;;;;;;28.28;24.90;95256.53;5014470;28;20068;-51
2021/11/07 04:52:32;;;;;;;21.70;19.00;;;;;;;28.58;24.38;95253.56;5014194;28;20496;-51
2021/11/07 04:54:59;;;;;;;21.98;18.50;;;;;;;28.20;25.13;95234.22;5014024;28;20121;-48
2021/11/07 04:57:26;;;;;;;22.73;18.63;;;;;;;28.67;24.61;95241.31;5012777;28;20072;-63
2021/11/07 04:59:53;;;;;;;21.33;17.90;;;;;;;28.07;25.33;95236.44;5014015;28;20457;-50
2021/11/07 05:02:21;;;;;;;22.52;18.98;;;;;;;28.38;24.75;95235.09;5014189;28;20052;-48
2021/11/07 05:04:53;;;;;;;21.55;18.13;;;;;;;28.35;25.00;95232.38;5013824;28;20052;-48
2021/11/07 05:07:21;;;;;;;23.02;17.98;;;;;;;28.39;24.81;95233.94;5013599;28;20500;-49
2021/11/07 05:09:48;;;;;;;21.58;17.30;;;;;;;28.19;25.35;95217.31;5012635;28;20052;-49
2021/11/07 05:12:15;;;;;;;21.05;17.63;;;;;;;28.20;24.92;95224.22;5013938;28;20045;-49
2021/11/07 05:14:43;;;;;;;19.58;16.25;;;;;;;28.14;25.28;95224.97;5013788;28;20391;-48
2021/11/07 05:17:10;;;;;;;21.70;18.17;;;;;;;28.24;24.82;95235.78;4997264;28;20061;-49
2021/11/07 05:19:37;;;;;;;22.13;17.92;;;;;;;28.32;24.79;95231.22;5013547;28;20056;-50
2021/11/07 05:22:05;;;;;;;19.08;16.98;;;;;;;28.01;25.42;95234.50;5013278;28;20058;-55
2021/11/07 05:24:33;;;;;;;21.52;17.42;;;;;;;28.18;25.08;95236.50;5013717;28;20042;-55
2021/11/07 05:27:00;;;;;;;19.70;16.90;;;;;;;28.49;24.63;95229.72;5013532;28;20479;-52
2021/11/07 05:29:28;;;;;;;20.63;17.30;;;;;;;28.24;24.81;95235.00;5013241;28;20050;-49
2021/11/07 05:31:57;;;;;;;20.25;17.38;;;;;;;28.42;24.75;95240.47;5013303;28;20054;-52
2021/11/07 05:34:24;;;;;;;20.63;17.65;;;;;;;28.33;24.98;95234.66;5013886;28;20050;-49
2021/11/07 05:36:52;;;;;;;19.65;16.45;;;;;;;28.29;24.83;95236.56;5017016;28;20049;-50
2021/11/07 05:39:19;;;;;;;19.38;17.25;;;;;;;28.31;25.02;95234.28;5016936;28;20050;-50
2021/11/07 05:41:47;;;;;;;22.98;17.20;;;;;;;28.15;25.03;95232.66;5017401;28;20049;-51
2021/11/07 05:44:14;;;;;;;20.17;17.60;;;;;;;28.29;24.94;95233.88;5017340;28;20046;-51
2021/11/07 05:46:43;;;;;;;22.67;17.25;;;;;;;28.03;25.42;95232.97;5017565;28;20050;-51
2021/11/07 05:49:10;;;;;;;19.83;17.83;;;;;;;28.12;24.84;95233.44;5018656;28;20045;-49
2021/11/07 05:51:38;;;;;;;20.83;17.45;;;;;;;28.17;24.96;95241.13;5036353;28;20460;-51
2021/11/07 05:54:05;;;;;;;23.48;18.25;;;;;;;28.45;24.87;95237.78;5036945;28;20352;-51
2021/11/07 05:56:33;;;;;;;20.98;17.02;;;;;;;28.30;25.06;95243.50;5036680;28;20214;-50
2021/11/07 05:59:01;;;;;;;19.25;17.15;;;;;;;28.31;24.76;95245.03;5022035;28;20049;-49
2021/11/07 06:01:28;;;;;;;20.20;17.77;;;;;;;28.10;25.24;95251.81;5017169;28;20702;-50
2021/11/07 06:03:55;;;;;;;20.90;17.80;;;;;;;28.61;24.61;95258.19;5017047;28;20432;-50
2021/11/07 06:06:23;;;;;;;20.92;18.73;;;;;;;28.72;24.78;95265.16;5017035;28;20052;-50
2021/11/07 06:08:50;;;;;;;19.35;17.38;;;;;;;28.76;24.77;95257.84;5016496;28;20052;-49
2021/11/07 06:11:18;;;;;;;21.17;17.38;;;;;;;29.03;24.46;95260.25;5017093;28;20041;-53
2021/11/07 06:13:45;;;;;;;22.45;18.38;;;;;;;29.17;24.24;95257.56;5016151;28;20045;-50
2021/11/07 06:16:12;;;;;;;21.98;18.98;;;;;;;29.21;24.53;95261.03;5016938;28;20050;-52
2021/11/07 06:18:39;;;;;;;24.42;19.23;;;;;;;29.15;24.88;95265.25;5025380;28;20073;-51
2021/11/07 06:21:08;;;;;;;21.80;19.50;;;;;;;29.28;24.67;95258.34;5016182;28;20052;-51
2021/11/07 06:23:36;;;;;;;27.02;21.05;;;;;;;29.09;24.81;95264.09;5016755;28;20438;-50
2021/11/07 06:26:03;;;;;;;26.95;20.77;;;;;;;29.20;24.80;95272.97;5016532;28;20053;-49
2021/11/07 06:28:30;;;;;;;22.45;19.35;;;;;;;29.35;24.52;95269.09;5016115;28;20054;-54
2021/11/07 06:31:03;;;;;;;25.02;20.23;;;;;;;29.43;24.52;95270.66;5016392;28;20049;-50
2021/11/07 06:33:30;;;;;;;22.98;20.48;;;;;;;29.53;24.48;95268.38;5016441;28;20046;-51
2021/11/07 06:35:58;;;;;;;22.58;20.05;;;;;;;29.50;24.56;95264.53;5015143;28;20048;-50
2021/11/07 06:38:25;;;;;;;22.27;19.70;;;;;;;29.45;24.67;95273.75;5016066;28;20045;-49
2021/11/07 06:40:53;;;;;;;22.70;19.35;;;;;;;29.41;24.90;95272.97;5016244;28;20060;-55
2021/11/07 06:43:20;;;;;;;22.67;19.48;;;;;;;29.25;25.13;95269.88;5016358;28;20360;-50
2021/11/07 06:45:47;;;;;;;25.38;20.88;;;;;;;29.60;24.86;95271.81;5015274;28;20049;-50
2021/11/07 06:48:14;;;;;;;32.80;29.60;;;;;;;29.81;24.55;95289.88;5029095;28;20049;-51
2021/11/07 06:50:42;;;;;;;22.10;19.60;;;;;;;29.58;24.94;95281.44;5035708;28;20045;-51
2021/11/07 06:53:09;;;;;;;22.88;19.77;;;;;;;29.80;24.91;95282.97;5036006;28;20045;-49
2021/11/07 06:55:36;;;;;;;24.55;20.98;;;;;;;29.81;24.87;95279.09;5033017;28;20486;-50
2021/11/07 06:58:03;;;;;;;22.45;20.10;;;;;;;30.15;24.46;95286.75;5015998;28;20066;-50
2021/11/07 07:00:31;;;;;;;24.58;21.15;;;;;;;30.17;24.57;95289.81;5015951;28;20045;-50
2021/11/07 07:02:59;;;;;;;23.02;20.52;;;;;;;29.88;25.03;95291.78;5015898;28;20045;-52
2021/11/07 07:05:26;;;;;;;22.58;20.20;;;;;;;30.18;24.92;95291.38;5015391;28;20049;-50
2021/11/07 07:07:55;;;;;;;25.10;21.02;;;;;;;30.08;24.98;95287.56;5015606;28;20054;-52
2021/11/07 07:10:28;;;;;;;22.83;20.42;;;;;;;30.03;24.97;95286.03;5014773;28;20042;-50
2021/11/07 07:13:02;;;;;;;23.58;20.52;;;;;;;29.97;25.27;95282.16;5015191;28;20061;-50
2021/11/07 07:15:33;;;;;;;23.58;20.88;;;;;;;29.96;25.23;95293.34;5015238;28;20045;-51
2021/11/07 07:18:15;;;;;;;22.40;20.15;;;;;;;30.02;25.15;95284.47;5022860;28;20064;-54
2021/11/07 07:23:38;;;;;;;23.63;20.95;;;;;;;30.15;25.13;95274.03;5015530;28;20045;-49
2021/11/07 07:34:04;;;;;;;26.60;22.92;;;;;;;30.71;24.63;95268.84;5015429;28;20460;-49
2021/11/07 07:36:32;;;;;;;25.67;22.33;;;;;;;30.47;24.83;95260.47;5003674;28;20044;-49
2021/11/07 07:38:59;;;;;;;27.52;21.80;;;;;;;30.49;24.71;95258.13;5014924;28;20064;-57
2021/11/07 07:41:26;;;;;;;26.83;23.17;;;;;;;30.34;24.68;95267.44;5015229;28;20444;-55
2021/11/07 07:43:56;;;;;;;26.48;23.00;;;;;;;30.56;24.82;95266.19;4997737;28;20476;-50
2021/11/07 07:46:25;;;;;;;26.55;23.15;;;;;;;30.41;25.02;95262.00;5014684;28;20057;-49
2021/11/07 07:48:54;;;;;;;26.90;23.63;;;;;;;30.31;25.16;95268.22;5032872;28;20125;-50
2021/11/07 07:51:24;;;;;;;27.25;23.95;;;;;;;30.53;24.82;95277.00;5034849;28;20060;-51
2021/11/07 07:53:51;;;;;;;28.95;23.88;;;;;;;30.36;24.95;95265.13;5033146;28;20045;-49
2021/11/07 07:56:18;;;;;;;27.25;23.60;;;;;;;30.49;25.06;95265.47;5013935;28;20045;-50
2021/11/07 07:58:45;;;;;;;26.77;22.77;;;;;;;30.60;24.94;95261.56;5014005;28;20041;-50
2021/11/07 08:01:12;;;;;;;26.30;22.52;;;;;;;30.55;24.96;95259.25;5013766;28;20080;-49
2021/11/07 08:03:39;;;;;;;27.50;23.40;;;;;;;30.74;24.72;95278.88;5014814;28;20052;-49
2021/11/07 08:06:06;;;;;;;25.02;22.33;;;;;;;30.60;24.83;95268.88;5014064;28;20440;-50
2021/11/07 08:08:35;;;;;;;24.33;20.98;;;;;;;31.33;24.16;95271.56;5014195;28;20444;-51
2021/11/07 08:11:02;;;;;;;25.17;22.52;;;;;;;31.01;24.35;95282.56;5014635;28;20046;-55
2021/11/07 08:13:29;;;;;;;24.98;21.63;;;;;;;31.13;24.32;95279.38;5014809;28;20475;-53
2021/11/07 08:15:56;;;;;;;25.48;22.27;;;;;;;31.18;24.07;95280.91;5013909;28;20050;-52
2021/11/07 08:18:24;;;;;;;24.52;22.02;;;;;;;31.05;24.53;95272.50;5029009;28;20049;-49
2021/11/07 08:20:52;;;;;;;26.80;22.95;;;;;;;30.97;24.38;95257.53;5034221;28;20052;-49
2021/11/07 08:23:23;;;;;;;24.02;21.38;;;;;;;31.41;23.91;95248.72;5034165;28;20045;-52
2021/11/07 08:25:51;;;;;;;26.23;23.02;;;;;;;31.19;24.60;95234.63;5028744;28;20495;-58
2021/11/07 08:28:20;;;;;;;25.77;22.48;;;;;;;31.29;23.92;95241.88;5014330;28;20049;-50
2021/11/07 08:30:53;;;;;;;24.40;21.75;;;;;;;31.59;23.99;95251.28;5014348;28;20050;-50
2021/11/07 08:33:20;;;;;;;26.15;22.77;;;;;;;31.32;24.10;95242.25;5014417;28;20045;-49
2021/11/07 08:35:49;;;;;;;28.55;21.05;;;;;;;32.26;23.15;95236.31;5013454;28;20038;-49
2021/11/07 08:38:27;;;;;;;24.60;22.05;;;;;;;31.50;23.84;95230.13;5013465;28;20050;-50
2021/11/07 08:40:56;;;;;;;24.33;21.73;;;;;;;32.43;22.72;95227.22;5014081;28;20053;-50
2021/11/07 09:08:23;;;;;;;23.02;20.52;;;;;;;34.20;20.77;95163.19;5013764;28;20041;-44
2021/11/07 09:10:47;;;;;;;20.55;18.27;;;;;;;34.08;20.39;95177.38;5017326;28;20057;-59
2021/11/07 09:13:16;;;;;;;20.00;17.88;;;;;;;33.78;20.70;95180.28;5018026;28;20364;-47
2021/11/07 09:15:47;;;;;;;21.40;18.55;;;;;;;34.18;20.26;95181.06;5017436;28;20342;-55
2021/11/07 09:18:14;;;;;;;28.50;19.42;;;;;;;34.48;20.20;95178.13;5029735;28;20045;-46
2021/11/07 09:21:23;;;;;;;23.00;18.85;;;;;;;34.82;19.62;95168.84;5019393;28;20049;-47
2021/11/07 09:24:22;;;;;;;21.23;19.10;;;;;;;34.82;19.70;95153.31;4997144;28;20053;-54
2021/11/07 09:26:46;;;;;;;19.90;17.80;;;;;;;34.84;19.82;95150.97;5014074;28;20045;-62
2021/11/07 09:29:24;;;;;;;21.35;17.27;;;;;;;34.81;19.87;95151.78;5016713;28;20057;-58
2021/11/07 09:34:34;;;;;;;23.25;17.65;;;;;;;35.39;19.44;95154.69;5017754;28;20050;-55
2021/11/07 09:37:05;;;;;;;23.30;17.70;;;;;;;34.59;20.38;95145.31;5016823;28;20045;-55
2021/11/07 09:39:47;;;;;;;22.52;15.75;;;;;;;35.87;18.81;95141.41;5017506;28;20057;-58
2021/11/07 09:44:43;;;;;;;19.52;17.63;;;;;;;34.35;20.73;95141.19;5014859;28;20483;-47
2021/11/07 09:47:12;;;;;;;21.15;18.05;;;;;;;33.84;21.67;95135.28;5016730;28;20046;-55
2021/11/07 09:49:47;;;;;;;19.48;17.42;;;;;;;33.81;21.54;95136.06;5016988;28;20068;-67
2021/11/07 09:52:26;;;;;;;18.38;16.52;;;;;;;34.10;21.68;95137.06;5014047;28;20237;-71
2021/11/07 09:55:02;;;;;;;17.70;15.65;;;;;;;34.11;21.31;95127.75;5012426;28;20061;-70
2021/11/07 09:57:29;;;;;;;18.05;16.15;;;;;;;35.06;20.27;95128.72;5011603;28;20050;-69
2021/11/07 10:00:01;;;;;;;20.77;16.55;;;;;;;35.67;19.84;95112.41;5011773;28;20050;-53
2021/11/07 10:02:39;;;;;;;19.50;15.63;;;;;;;35.60;19.64;95107.13;4996593;28;20060;-52
2021/11/07 10:05:07;;;;;;;19.15;17.15;;;;;;;35.95;19.35;95099.22;5017441;28;20053;-49
2021/11/07 10:07:38;;;;;;;24.92;19.70;;;;;;;36.27;19.54;95098.28;5016482;28;20053;-72
2021/11/07 10:10:14;;;;;;;23.88;19.23;;;;;;;36.01;19.40;95098.25;5017114;28;20046;-57
2021/11/07 10:12:45;;;;;;;20.48;18.05;;;;;;;36.38;19.01;95087.84;5016938;28;20046;-52
2021/11/07 10:15:44;;;;;;;25.65;22.48;;;;;;;36.37;19.24;95081.63;5016632;28;20365;-66
2021/11/07 10:18:35;;;;;;;21.75;19.50;;;;;;;36.50;18.92;95083.59;5026849;28;20057;-52
2021/11/07 10:21:25;;;;;;;22.92;20.40;;;;;;;36.41;19.10;95078.78;5035573;28;20045;-54
2021/11/07 10:24:17;;;;;;;29.00;26.10;;;;;;;36.42;18.87;95075.63;5019410;28;20053;-53
2021/11/07 10:26:51;;;;;;;23.13;20.73;;;;;;;36.31;19.11;95067.06;5027021;28;20050;-55
2021/11/07 10:29:23;;;;;;;21.38;19.08;;;;;;;36.43;19.10;95058.13;5015546;28;20380;-59
2021/11/07 10:32:04;;;;;;;19.52;17.42;;;;;;;36.52;19.03;95052.03;5015750;28;20475;-61
2021/11/07 10:34:59;;;;;;;21.38;16.90;;;;;;;36.41;18.77;95049.63;5016421;28;20045;-56
2021/11/07 10:53:43;;;;;;;16.88;15.18;;;;;;;36.68;18.08;95008.28;5034700;28;20060;-58
2021/11/07 10:56:11;;;;;;;17.90;15.07;;;;;;;36.53;18.78;94996.38;5032324;28;20057;-56
2021/11/07 10:58:43;;;;;;;19.60;15.48;;;;;;;36.73;18.51;94999.59;5014274;28;20057;-57
2021/11/07 11:01:17;;;;;;;27.75;21.80;;;;;;;36.54;18.49;94997.88;5016257;28;20373;-60
2021/11/07 11:03:47;;;;;;;22.27;16.98;;;;;;;36.14;18.80;94992.91;5015965;28;20049;-61
2021/11/07 11:06:14;;;;;;;18.40;15.60;;;;;;;36.44;17.93;94988.13;5015717;28;20038;-56
2021/11/07 11:08:54;;;;;;;19.00;14.75;;;;;;;36.78;18.18;94989.31;5015618;28;20364;-58
2021/11/07 11:11:32;;;;;;;16.35;14.65;;;;;;;36.54;18.12;94981.56;5015802;28;20052;-58
2021/11/07 11:14:08;;;;;;;17.15;14.38;;;;;;;36.47;18.45;94981.78;5015638;28;20135;-57
2021/11/07 11:35:20;;;;;;;17.38;14.43;;;;;;;36.40;18.59;94955.53;5014019;28;20057;-70
2021/11/07 11:40:24;;;;;;;16.98;15.10;;;;;;;36.22;18.84;94949.91;5014121;28;20053;-57
2021/11/07 11:42:57;;;;;;;19.58;15.60;;;;;;;36.21;18.71;94934.03;4998655;28;20376;-68
2021/11/07 11:45:35;;;;;;;20.60;14.15;;;;;;;36.26;18.55;94919.84;5011368;28;20132;-67
2021/11/07 11:56:34;;;;;;;16.27;14.32;;;;;;;36.28;18.53;94914.72;5034499;28;20049;-70
2021/11/07 11:59:09;;;;;;;14.65;13.15;;;;;;;36.48;18.48;94915.25;5033298;28;20095;-70
2021/11/07 12:01:48;;;;;;;17.50;13.32;;;;;;;36.36;18.64;94902.44;5015104;28;20049;-70
2021/11/07 12:04:33;;;;;;;13.75;12.40;;;;;;;36.34;18.59;94896.66;5014193;28;20072;-70
2021/11/07 12:07:22;;;;;;;15.00;13.43;;;;;;;36.27;18.65;94891.44;5014563;28;20325;-69
2021/11/07 12:12:35;;;;;;;14.32;12.73;;;;;;;36.29;18.91;94894.47;5014151;28;20050;-69
2021/11/07 12:15:16;;;;;;;14.38;12.88;;;;;;;36.33;18.69;94897.88;5013165;28;20053;-69
2021/11/07 12:17:46;;;;;;;16.40;13.57;;;;;;;36.35;18.69;94887.31;5023104;28;20364;-69
2021/11/07 12:20:24;;;;;;;15.32;13.82;;;;;;;36.18;18.76;94883.19;5024128;28;20072;-69
2021/11/07 12:23:17;;;;;;;15.38;13.80;;;;;;;36.00;19.46;94870.94;5013671;28;20049;-53
2021/11/07 12:25:46;;;;;;;16.48;13.98;;;;;;;35.83;19.29;94864.88;5014036;28;20050;-55
2021/11/07 12:28:13;;;;;;;19.15;14.13;;;;;;;35.71;19.56;94862.13;5014479;28;20084;-55
2021/11/07 12:30:41;;;;;;;14.50;13.00;;;;;;;36.09;18.92;94862.84;5012900;28;20049;-57
2021/11/07 12:33:10;;;;;;;15.90;13.57;;;;;;;36.07;19.10;94867.97;5014251;28;20046;-52
2021/11/07 12:36:07;;;;;;;14.20;12.68;;;;;;;36.15;19.01;94860.31;5013463;28;20053;-56
2021/11/07 12:41:23;;;;;;;15.85;13.23;;;;;;;35.95;18.90;94855.16;5014361;28;20041;-66
2021/11/07 12:44:01;;;;;;;16.65;12.88;;;;;;;36.16;19.11;94850.97;5012881;28;20058;-56
2021/11/07 12:46:44;;;;;;;17.42;13.40;;;;;;;35.83;19.09;94843.09;5013687;28;20061;-52
2021/11/07 12:49:14;;;;;;;17.48;14.77;;;;;;;35.57;19.33;94840.81;5027224;28;20364;-54
2021/11/07 12:51:49;;;;;;;19.90;16.60;;;;;;;36.21;19.14;94830.63;5033866;28;20076;-65
2021/11/07 12:54:24;;;;;;;17.17;15.15;;;;;;;35.42;19.73;94832.38;5028210;28;20064;-59
2021/11/07 12:57:01;;;;;;;112.63;74.10;;;;;;;35.23;19.82;94839.50;5013867;28;20061;-57
2021/11/07 12:59:44;;;;;;;24.65;18.77;;;;;;;35.26;19.65;94838.63;5013835;28;20045;-57
2021/11/07 13:02:29;;;;;;;16.73;13.95;;;;;;;35.28;19.55;94836.25;5014250;28;20466;-57
2021/11/07 13:05:06;;;;;;;18.40;14.65;;;;;;;34.99;19.99;94825.47;5013777;28;20053;-60
2021/11/07 13:07:45;;;;;;;29.17;22.17;;;;;;;36.43;18.33;94828.69;5013011;28;20100;-55
2021/11/07 13:10:23;;;;;;;14.95;13.35;;;;;;;37.09;17.84;94834.91;5013693;28;20053;-62
2021/11/07 13:13:00;;;;;;;23.67;16.35;;;;;;;34.88;20.13;94838.59;5013726;28;20049;-68
2021/11/07 13:24:25;;;;;;;17.70;15.00;;;;;;;35.31;19.85;94831.88;5033071;28;20060;-63
2021/11/07 13:29:40;;;;;;;19.08;15.50;;;;;;;36.07;19.11;94831.84;5031861;28;20049;-55
2021/11/07 13:34:36;;;;;;;14.80;13.13;;;;;;;36.33;18.96;94836.03;5013003;28;20045;-54
2021/11/07 13:37:06;;;;;;;17.98;14.30;;;;;;;36.92;18.78;94834.34;5013052;28;20057;-57
2021/11/07 13:39:36;;;;;;;14.25;12.30;;;;;;;36.68;18.87;94828.56;5012972;28;20048;-57
2021/11/07 13:42:12;;;;;;;15.35;13.43;;;;;;;36.10;19.47;94834.44;5012792;28;20064;-55
2021/11/07 13:45:00;;;;;;;14.98;13.48;;;;;;;35.83;19.07;94828.75;5012580;28;20045;-58
2021/11/07 13:47:38;;;;;;;16.65;13.05;;;;;;;35.82;19.07;94835.34;5020127;28;20053;-56
2021/11/07 13:50:11;;;;;;;14.05;12.55;;;;;;;35.65;19.42;94820.38;5027230;28;20053;-55
2021/11/07 13:52:40;;;;;;;13.93;12.45;;;;;;;35.44;19.61;94833.44;5013559;28;20049;-57
2021/11/07 13:55:14;;;;;;;13.80;12.18;;;;;;;35.50;19.62;94831.69;5011710;28;20054;-55
2021/11/07 13:57:41;;;;;;;14.00;11.70;;;;;;;35.69;19.43;94831.91;5016028;28;20046;-57
2021/11/07 14:00:10;;;;;;;13.95;12.52;;;;;;;35.27;19.95;94829.28;5016096;28;20050;-57
2021/11/07 14:02:46;;;;;;;14.50;12.82;;;;;;;35.34;19.84;94820.94;5016579;28;20383;-56
2021/11/07 14:05:14;;;;;;;15.88;13.07;;;;;;;35.14;19.95;94823.84;5016700;28;20050;-56
2021/11/07 14:07:41;;;;;;;14.18;12.68;;;;;;;35.13;19.78;94818.84;5016183;28;20058;-56
2021/11/07 14:10:20;;;;;;;15.55;12.77;;;;;;;35.19;20.10;94822.56;5016217;28;20046;-57
2021/11/07 14:12:54;;;;;;;15.60;12.35;;;;;;;35.20;19.92;94818.63;5016334;28;20061;-56